createdAt,value
2023-01-17T00:04:50.708Z,76194.53
2023-01-17T00:12:07.815Z,76194.53
2023-01-17T00:19:28.067Z,76204.75
2023-01-17T00:26:31.841Z,76194.53
2023-01-17T00:33:33.703Z,76198.63
2023-01-17T00:40:39.287Z,76202.72
2023-01-17T00:47:59.561Z,76200.66
2023-01-17T00:55:20.263Z,76210.88
2023-01-17T01:02:41.424Z,76202.72
2023-01-17T01:10:02.096Z,76204.75
2023-01-17T01:17:22.993Z,76194.53
2023-01-17T01:24:43.254Z,76190.44
2023-01-17T01:32:03.660Z,76174.09
2023-01-17T01:39:05.793Z,76159.78
2023-01-17T01:46:14.747Z,76145.50
2023-01-17T01:53:18.432Z,76139.34
2023-01-17T02:00:25.325Z,76133.22
2023-01-17T02:07:32.847Z,76129.13
2023-01-17T02:14:34.969Z,76118.91
2023-01-17T02:22:01.571Z,76100.53
2023-01-17T02:29:15.658Z,76098.50
2023-01-17T02:36:26.185Z,76106.66
2023-01-17T02:43:28.274Z,76088.28
2023-01-17T02:50:46.939Z,76086.22
2023-01-17T02:58:18.179Z,76080.09
2023-01-17T03:05:32.079Z,76069.88
2023-01-17T03:12:36.374Z,76055.56
2023-01-17T03:19:38.401Z,76051.50
2023-01-17T03:26:40.628Z,76047.41
2023-01-17T03:33:42.718Z,76051.50
2023-01-17T03:40:44.734Z,76043.31
2023-01-17T03:47:46.835Z,76041.28
2023-01-17T03:54:49.273Z,76026.97
2023-01-17T04:01:51.636Z,76012.66
2023-01-17T04:08:53.810Z,76016.75
2023-01-17T04:15:56.523Z,76010.63
2023-01-17T04:22:58.626Z,76010.63
2023-01-17T04:30:00.704Z,76006.53
2023-01-17T04:37:02.898Z,76004.50
2023-01-17T04:44:04.989Z,76010.63
2023-01-17T04:51:07.013Z,76006.53
2023-01-17T04:58:09.007Z,76000.41
2023-01-17T05:05:11.541Z,76008.56
2023-01-17T05:12:13.573Z,76006.53
2023-01-17T05:19:15.821Z,76010.63
2023-01-17T05:26:17.943Z,76006.53
2023-01-17T05:33:19.934Z,76002.44
2023-01-17T05:40:25.172Z,75998.34
2023-01-17T05:47:27.139Z,76012.66
2023-01-17T05:54:29.278Z,75998.34
2023-01-17T06:01:31.302Z,76000.41
2023-01-17T06:08:33.343Z,75996.31
2023-01-17T06:15:36.615Z,75998.34
2023-01-17T06:22:38.666Z,75990.19
2023-01-17T06:29:40.656Z,75986.09
2023-01-17T06:36:42.690Z,75986.09
2023-01-17T06:43:44.762Z,75982.00
2023-01-17T06:50:48.497Z,75977.91
2023-01-17T06:57:51.055Z,75990.19
2023-01-17T07:04:53.168Z,75986.09
2023-01-17T07:12:00.947Z,75988.13
2023-01-17T07:19:03.131Z,75986.09
2023-01-17T07:26:05.156Z,75994.28
2023-01-17T07:33:07.195Z,75998.34
2023-01-17T07:40:12.144Z,75990.19
2023-01-17T07:47:14.696Z,75986.09
2023-01-17T07:54:19.964Z,75977.91
2023-01-17T08:01:22.118Z,75977.91
2023-01-17T08:08:24.314Z,75973.84
2023-01-17T08:15:27.000Z,75957.50
2023-01-17T08:22:30.954Z,75941.13
2023-01-17T08:29:33.119Z,75930.91
2023-01-17T08:36:35.101Z,75916.63
2023-01-17T08:43:37.069Z,75912.53
2023-01-17T08:50:39.179Z,75916.63
2023-01-17T08:57:41.257Z,75916.63
2023-01-17T09:04:47.820Z,75922.75
2023-01-17T09:11:50.060Z,75928.88
2023-01-17T09:18:56.060Z,75924.78
2023-01-17T09:25:59.757Z,75904.34
2023-01-17T09:33:01.920Z,75904.34
2023-01-17T09:40:04.377Z,75900.28
2023-01-17T09:47:41.306Z,75890.06
2023-01-17T09:54:45.788Z,75877.78
2023-01-17T10:02:02.687Z,75875.75
2023-01-17T10:09:32.517Z,75888.00
2023-01-17T10:16:43.559Z,75877.78
2023-01-17T10:23:51.669Z,75879.84
2023-01-17T10:31:27.249Z,75879.84
2023-01-17T10:38:42.266Z,75875.75
2023-01-17T10:45:52.338Z,75879.84
2023-01-17T10:53:07.201Z,75873.72
2023-01-17T11:00:45.723Z,75857.34
2023-01-17T11:08:10.060Z,75859.41
2023-01-17T11:15:12.068Z,75855.31
2023-01-17T11:22:15.459Z,75857.34
2023-01-17T11:29:39.767Z,75853.28
2023-01-17T11:36:42.064Z,75855.31
2023-01-17T11:43:58.877Z,75851.22
2023-01-17T11:51:01.096Z,75851.22
2023-01-17T11:58:03.120Z,75859.41
2023-01-17T12:05:23.828Z,75857.34
2023-01-17T12:13:02.137Z,75857.34
2023-01-17T12:20:06.350Z,75871.66
2023-01-17T12:27:23.530Z,75873.72
2023-01-17T12:34:30.773Z,75871.66
2023-01-17T12:41:49.841Z,75867.56
2023-01-17T12:48:54.673Z,75863.50
2023-01-17T12:56:02.348Z,75869.63
2023-01-17T13:03:12.137Z,75867.56
2023-01-17T13:10:52.289Z,75865.53
2023-01-17T13:18:16.337Z,75871.66
2023-01-17T13:25:30.319Z,75888.00
2023-01-17T13:33:05.065Z,75885.97
2023-01-17T13:40:34.910Z,75881.88
2023-01-17T13:47:40.614Z,75892.09
2023-01-17T13:54:49.449Z,75885.97
2023-01-17T14:01:52.661Z,75900.28
2023-01-17T14:08:55.067Z,75898.22
2023-01-17T14:15:57.312Z,75902.31
2023-01-17T14:23:01.733Z,75912.53
2023-01-17T14:30:05.134Z,75916.63
2023-01-17T14:37:23.296Z,75918.66
2023-01-17T14:44:25.463Z,75941.13
2023-01-17T14:51:28.614Z,75967.72
2023-01-17T14:58:32.799Z,75988.13
2023-01-17T15:05:35.011Z,76000.41
2023-01-17T15:12:38.985Z,76016.75
2023-01-17T15:19:43.149Z,76043.31
2023-01-17T15:26:45.547Z,76080.09
2023-01-17T15:33:49.774Z,76100.53
2023-01-17T15:40:51.977Z,76127.09
2023-01-17T15:47:54.327Z,76155.72
2023-01-17T15:55:11.618Z,76172.06
2023-01-17T16:02:32.712Z,76186.38
2023-01-17T16:09:43.672Z,76188.41
2023-01-17T16:16:53.130Z,76219.06
2023-01-17T16:23:55.141Z,76233.38
2023-01-17T16:30:57.697Z,76251.75
2023-01-17T16:38:02.932Z,76257.88
2023-01-17T16:45:05.646Z,76278.31
2023-01-17T16:52:07.623Z,76306.94
2023-01-17T16:59:09.931Z,76300.81
2023-01-17T17:06:13.010Z,76288.53
2023-01-17T17:13:15.339Z,76276.28
2023-01-17T17:20:18.197Z,76292.63
2023-01-17T17:27:21.053Z,76296.72
2023-01-17T17:34:25.995Z,76300.81
2023-01-17T17:41:36.140Z,76288.53
2023-01-17T17:48:38.514Z,76284.44
2023-01-17T17:55:42.010Z,76286.50
2023-01-17T18:02:44.661Z,76296.72
2023-01-17T18:09:47.271Z,76296.72
2023-01-17T18:16:51.040Z,76296.72
2023-01-17T18:24:01.760Z,76294.66
2023-01-17T18:31:08.204Z,76296.72
2023-01-17T18:38:10.791Z,76308.97
2023-01-17T18:45:13.310Z,76296.72
2023-01-17T18:52:15.833Z,76294.66
2023-01-17T18:59:24.985Z,76306.94
2023-01-17T19:06:29.268Z,76317.16
2023-01-17T19:13:36.073Z,76325.31
2023-01-17T19:20:41.222Z,76325.31
2023-01-17T19:27:44.569Z,76329.41
2023-01-17T19:34:47.607Z,76335.53
2023-01-17T19:41:51.713Z,76341.69
2023-01-17T19:48:58.608Z,76355.97
2023-01-17T19:56:03.022Z,76376.41
2023-01-17T20:03:08.335Z,76388.69
2023-01-17T20:10:17.923Z,76405.03
2023-01-17T20:17:26.685Z,76435.69
2023-01-17T20:24:33.616Z,76456.13
2023-01-17T20:31:43.708Z,76470.44
2023-01-17T20:38:51.068Z,76484.72
2023-01-17T20:45:57.653Z,76490.88
2023-01-17T20:53:03.712Z,76490.88
2023-01-17T21:00:07.325Z,76492.91
2023-01-17T21:07:09.353Z,76505.16
2023-01-17T21:14:12.194Z,76509.25
2023-01-17T21:21:17.959Z,76515.38
2023-01-17T21:28:20.570Z,76517.44
2023-01-17T21:35:22.719Z,76531.75
2023-01-17T21:42:25.034Z,76539.91
2023-01-17T21:49:27.206Z,76544.00
2023-01-17T21:56:47.518Z,76570.56
2023-01-17T22:03:51.618Z,76574.66
2023-01-17T22:10:53.887Z,76578.75
2023-01-17T22:17:56.149Z,76574.66
2023-01-17T22:24:58.587Z,76597.13
2023-01-17T22:32:00.526Z,76605.31
2023-01-17T22:39:02.890Z,76623.72
2023-01-17T22:46:07.521Z,76633.94
2023-01-17T22:53:10.752Z,76635.97
2023-01-17T23:00:14.778Z,76629.84
2023-01-17T23:07:16.898Z,76648.22
2023-01-17T23:14:21.873Z,76650.28
2023-01-17T23:21:43.894Z,76660.50
2023-01-17T23:28:45.849Z,76674.81
2023-01-17T23:35:47.805Z,76697.28
2023-01-17T23:43:08.486Z,76689.09
2023-01-17T23:50:11.166Z,76685.03
2023-01-17T23:57:13.197Z,76680.94
